TimeWET,TemperatureF,Dew PointF,Humidity,Sea Level PressureIn,VisibilityMPH,Wind Direction,Wind SpeedMPH,Gust SpeedMPH,PrecipitationIn,Events,Conditions,WindDirDegrees,DateUTC
12:00 AM,60.8,57.2,88,30.15,6.2,WSW,5.8,-,N/A,,Partly Cloudy,240,2012-10-01 00:00:00
1:00 AM,60.8,57.2,88,30.15,6.2,WSW,5.8,-,N/A,,Partly Cloudy,250,2012-10-01 01:00:00
2:00 AM,59.0,57.2,94,30.15,6.2,Calm,Calm,-,N/A,,Partly Cloudy,0,2012-10-01 02:00:00
3:00 AM,59.0,57.2,94,30.12,6.2,South,2.3,-,N/A,,Partly Cloudy,190,2012-10-01 03:00:00
4:00 AM,59.0,57.2,94,30.12,6.2,Calm,Calm,-,N/A,,Partly Cloudy,0,2012-10-01 04:00:00
7:00 AM,59.0,59.0,100,30.15,6.2,SW,4.6,-,N/A,,Partly Cloudy,220,2012-10-01 07:00:00
8:00 AM,64.4,59.0,83,30.18,-9999.0,Variable,2.3,-,N/A,,Clear,0,2012-10-01 08:00:00
9:00 AM,70,58,56,30.14,12,South,3.5,,,,Scattered Clouds,180,2012-10-01 09:00:00
9:00 AM,69.8,57.2,64,30.18,-9999.0,South,3.5,-,N/A,,Clear,180,2012-10-01 09:00:00
10:00 AM,73.4,55.4,53,30.18,6.2,Variable,1.2,-,N/A,,Partly Cloudy,0,2012-10-01 10:00:00
11:00 AM,75.2,55.4,50,30.18,6.2,North,5.8,-,N/A,,Partly Cloudy,360,2012-10-01 11:00:00
12:00 PM,78,54,33,30.10,12,NNE,4.6,,,,Scattered Clouds,20,2012-10-01 12:00:00
12:00 PM,78.8,53.6,42,30.15,6.2,Variable,4.6,-,N/A,,Partly Cloudy,0,2012-10-01 12:00:00
2:00 PM,80.6,57.2,45,30.12,6.2,North,10.4,-,N/A,,Partly Cloudy,350,2012-10-01 14:00:00
3:00 PM,81,57,33,30.05,12,North,10.4,,,,Scattered Clouds,0,2012-10-01 15:00:00
3:00 PM,80.6,57.2,45,30.12,6.2,North,10.4,-,N/A,,Partly Cloudy,360,2012-10-01 15:00:00
5:00 PM,75.2,53.6,47,30.15,6.2,North,15.0,-,N/A,,Partly Cloudy,360,2012-10-01 17:00:00
6:00 PM,71,55,47,30.10,12,North,10.4,,,,Scattered Clouds,10,2012-10-01 18:00:00
6:00 PM,71.6,55.4,57,30.15,6.2,North,10.4,-,N/A,,Partly Cloudy,10,2012-10-01 18:00:00
7:00 PM,68.0,59.0,73,30.18,6.2,North,9.2,-,N/A,,Partly Cloudy,350,2012-10-01 19:00:00
8:00 PM,66.2,59.0,78,30.18,6.2,NNW,4.6,-,N/A,,Partly Cloudy,340,2012-10-01 20:00:00
9:00 PM,64,58,76,30.18,9,Calm,Calm,,,,,,2012-10-01 21:00:00
9:00 PM,64.4,59.0,83,30.21,-9999.0,Calm,Calm,-,N/A,,Clear,0,2012-10-01 21:00:00